CW2654 Weather Reports


Display with metric or nautical units.
time (UTC)temp
F
wind
direction
speed
MPH
gust
MPH
rain 1hr
in
rain 24hr
in
rain mn
in
humidity
%
barometer
mb
20210613114650 58 110 2.0 7.0 0.01 0.67 0.36 97 1012.4
20210613113151 58 110 3.0 8.0 0.01 0.67 0.36 97 1012.4
20210613111649 59 103 6.0 8.0 0.01 0.67 0.36 97 1012.7
20210613110230 59 101 4.0 8.0 0.01 0.66 0.35 97 1012.6
20210613104635 59 99 6.0 10.0 0.05 0.66 0.35 97 1013.0
20210613103335 59 101 5.0 8.0 0.07 0.66 0.35 97 1012.8
20210613101655 59 94 6.0 9.0 0.10 0.66 0.35 97 1012.8
20210613100105 59 74 3.0 8.0 0.10 0.65 0.34 97 1013.0
20210613094701 59 78 3.0 8.0 0.08 0.61 0.30 97 1012.8
20210613093104 58 106 3.0 9.0 0.11 0.58 0.27 97 1012.7
20210613091629 58 101 3.0 4.0 0.10 0.56 0.25 97 1012.8
20210613090249 58 98 3.0 6.0 0.12 0.55 0.24 96 1012.7
20210613084637 57 88 1.0 5.0 0.12 0.57 0.22 96 1012.6
20210613083201 58 76 1.0 2.0 0.07 0.51 0.16 96 1012.8
20210613081636 58 0 0.0 3.0 0.06 0.50 0.15 96 1012.8
20210613080151 58 76 0.0 2.0 0.11 0.47 0.12 96 1012.7
20210613074708 58 0 0.0 0.0 0.14 0.48 0.10 96 1012.4
20210613073113 57 0 0.0 2.0 0.17 0.47 0.09 96 1012.1
20210613071623 57 56 4.0 12.0 0.18 0.47 0.09 96 1012.3
20210613070214 58 93 0.0 2.0 0.11 0.39 0.01 96 1013.0
20210613064719 58 0 0.0 2.0 0.13 0.36 0.34 96 1012.6
20210613063226 57 95 3.0 7.0 0.11 0.31 0.29 96 1012.0
20210613061623 58 101 6.0 10.0 0.11 0.31 0.29 96 1012.1
20210613060149 58 0 0.0 2.0 0.11 0.30 0.28 95 1012.6
20210613054641 58 0 0.0 6.0 0.04 0.23 0.21 95 1012.8
20210613053205 58 91 0.0 3.0 0.03 0.20 0.18 95 1013.1
20210613051606 58 0 0.0 3.0 0.03 0.20 0.18 95 1012.7
20210613050150 58 0 0.0 1.0 0.04 0.19 0.17 95 1012.8
20210613044745 59 0 0.0 1.0 0.06 0.24 0.17 95 1012.5
20210613043157 59 0 0.0 2.0 0.04 0.22 0.15 95 1012.3
20210613041807 59 92 1.0 3.0 0.05 0.22 0.15 95 1012.1
20210613040127 59 76 1.0 3.0 0.03 0.20 0.13 94 1011.7
20210613034642 59 0 0.0 4.0 0.02 0.18 0.11 94 1011.6
20210613033153 59 86 2.0 7.0 0.02 0.18 0.11 93 1011.1
20210613031700 60 91 3.0 4.0 0.03 0.17 0.10 93 1011.1
20210613030215 61 0 0.0 0.0 0.03 0.17 0.10 91 1010.8
20210613024642 61 93 2.0 6.0 0.02 0.16 0.09 90 1010.6
20210613023205 64 89 3.0 6.0 0.02 0.16 0.09 85 1010.8
20210613021803 67 0 0.0 8.0 0.00 0.14 0.07 77 1011.2
20210613020125 69 0 1.0 7.0 0.00 0.14 0.07 67 1010.7
20210613014700 70 252 4.0 10.0 0.00 0.14 0.07 60 1010.5
20210613013251 71 271 1.0 6.0 0.00 0.14 0.07 59 1010.2
20210613011642 72 260 0.0 3.0 0.00 0.14 0.07 58 1010.1
20210613010122 72 325 1.0 7.0 0.00 0.14 0.07 62 1010.1
20210613004813 73 0 1.0 2.0 0.00 0.14 0.07 57 1010.4
20210613003156 73 272 0.0 4.0 0.00 0.14 0.07 58 1010.8
20210613001617 74 281 1.0 5.0 0.00 0.14 0.07 61 1011.0
20210613000219 74 325 2.0 6.0 0.00 0.14 0.07 57 1011.1
20210612234712 74 290 0.0 5.0 0.00 0.14 0.07 56 1011.4
20210612233142 75 319 2.0 6.0 0.00 0.14 0.07 57 1011.6
20210612231639 75 292 1.0 9.0 0.00 0.14 0.07 60 1011.6
20210612230204 76 293 4.0 9.0 0.00 0.14 0.07 50 1011.9
20210612224645 77 0 2.0 13.0 0.00 0.14 0.07 56 1012.1
20210612223113 75 317 4.0 9.0 0.00 0.14 0.07 56 1012.1
20210612221715 76 340 0.0 5.0 0.00 0.14 0.07 52 1012.4
20210612220253 75 0 1.0 12.0 0.00 0.14 0.07 56 1012.7
20210612214701 75 321 2.0 7.0 0.00 0.14 0.07 55 1013.0
20210612213128 75 280 2.0 10.0 0.00 0.14 0.07 57 1013.3
20210612211630 75 26 2.0 8.0 0.00 0.14 0.07 57 1013.4
20210612210202 73 5 2.0 14.0 0.00 0.14 0.07 62 1013.7
20210612204705 72 0 1.0 10.0 0.00 0.14 0.07 62 1013.8
20210612203144 72 20 2.0 8.0 0.00 0.14 0.07 58 1014.1
20210612201702 72 319 3.0 11.0 0.00 0.14 0.07 59 1014.6
20210612200217 72 318 3.0 11.0 0.00 0.14 0.07 63 1014.6
20210612194628 70 323 4.0 9.0 0.00 0.17 0.07 67 1014.6
20210612193213 70 321 2.0 8.0 0.00 0.17 0.07 66 1014.7
20210612191729 70 256 2.0 10.0 0.00 0.17 0.07 67 1014.7
20210612190312 69 300 3.0 11.0 0.00 0.17 0.07 71 1014.8
20210612184641 68 5 3.0 9.0 0.00 0.17 0.07 72 1015.0
20210612183151 67 302 2.0 9.0 0.00 0.17 0.07 73 1015.0
20210612181708 67 284 3.0 10.0 0.00 0.17 0.07 78 1015.4
20210612180123 66 300 4.0 10.0 0.00 0.17 0.07 78 1015.5
20210612174629 65 333 3.0 9.0 0.00 0.19 0.07 84 1015.9
20210612173209 64 340 2.0 9.0 0.00 0.19 0.07 84 1016.2
20210612171648 64 322 2.0 8.0 0.00 0.19 0.07 83 1016.8
20210612170153 63 316 3.0 8.0 0.00 0.19 0.07 90 1017.1
20210612164809 62 332 3.0 7.0 0.00 0.21 0.07 87 1017.1
20210612163303 61 317 2.0 5.0 0.00 0.21 0.07 91 1017.3
20210612161655 59 320 1.0 4.0 0.00 0.21 0.07 93 1017.3
20210612160131 58 335 1.0 4.0 0.00 0.21 0.07 94 1017.4
20210612154641 57 0 0.0 0.0 0.00 0.21 0.07 97 1017.4
20210612153141 56 329 1.0 3.0 0.00 0.21 0.07 97 1017.4
20210612151653 56 328 0.0 1.0 0.00 0.21 0.07 97 1017.4
20210612150219 55 0 0.0 3.0 0.00 0.21 0.07 97 1017.2
20210612144756 55 329 0.0 2.0 0.00 0.21 0.07 97 1016.9
20210612143226 55 0 0.0 3.0 0.00 0.21 0.07 98 1016.9
20210612141735 54 0 0.0 1.0 0.00 0.21 0.07 97 1016.8
20210612140132 53 0 0.0 0.0 0.00 0.21 0.07 97 1016.6
20210612134701 52 0 0.0 1.0 0.00 0.21 0.07 97 1016.5
20210612133156 52 84 1.0 3.0 0.00 0.21 0.07 97 1016.5
20210612131659 52 0 0.0 3.0 0.00 0.21 0.07 97 1016.3
20210612130139 52 84 0.0 2.0 0.00 0.21 0.07 97 1016.4
20210612124629 52 84 1.0 3.0 0.00 0.21 0.07 97 1016.4
20210612123232 52 84 2.0 4.0 0.00 0.21 0.07 96 1016.2
20210612121625 52 84 0.0 3.0 0.00 0.21 0.07 96 1016.1
20210612120151 52 84 2.0 4.0 0.00 0.21 0.07 96 1016.2